sensor_id;sensor_type;location;lat;lon;timestamp;pressure;altitude;pressure_sealevel;temperature;humidity
60479;BME280;46321;48.398;11.754;2022-12-07T00:01:25;96546.09;;;2.22;85.33
60479;BME280;46321;48.398;11.754;2022-12-07T00:03:53;96543.47;;;2.22;85.09
60479;BME280;46321;48.398;11.754;2022-12-07T00:06:19;96548.97;;;2.19;85.06
60479;BME280;46321;48.398;11.754;2022-12-07T00:08:46;96538.88;;;2.14;85.16
60479;BME280;46321;48.398;11.754;2022-12-07T00:11:18;96543.50;;;2.11;85.27
60479;BME280;46321;48.398;11.754;2022-12-07T00:13:44;96547.78;;;2.12;85.14
60479;BME280;46321;48.398;11.754;2022-12-07T00:16:16;96539.94;;;2.12;85.01
60479;BME280;46321;48.398;11.754;2022-12-07T00:18:42;96537.47;;;2.10;85.16
60479;BME280;46321;48.398;11.754;2022-12-07T00:21:25;96539.34;;;2.08;85.14
60479;BME280;46321;48.398;11.754;2022-12-07T00:23:52;96537.47;;;2.10;84.97
60479;BME280;46321;48.398;11.754;2022-12-07T00:26:20;96537.56;;;2.09;85.01
60479;BME280;46321;48.398;11.754;2022-12-07T00:28:50;96535.19;;;2.05;85.10
60479;BME280;46321;48.398;11.754;2022-12-07T00:31:17;96540.53;;;2.04;85.33
60479;BME280;46321;48.398;11.754;2022-12-07T00:33:43;96540.16;;;2.09;85.36
60479;BME280;46321;48.398;11.754;2022-12-07T00:36:11;96536.63;;;2.10;85.41
60479;BME280;46321;48.398;11.754;2022-12-07T00:38:38;96539.22;;;2.10;85.12
60479;BME280;46321;48.398;11.754;2022-12-07T00:41:06;96543.63;;;2.09;85.33
60479;BME280;46321;48.398;11.754;2022-12-07T00:43:31;96527.72;;;2.01;85.54
60479;BME280;46321;48.398;11.754;2022-12-07T00:45:57;96531.75;;;2.05;85.42
60479;BME280;46321;48.398;11.754;2022-12-07T00:48:23;96539.59;;;2.05;85.77
60479;BME280;46321;48.398;11.754;2022-12-07T00:50:49;96534.00;;;1.98;85.87
60479;BME280;46321;48.398;11.754;2022-12-07T00:53:15;96543.97;;;2.04;85.62
60479;BME280;46321;48.398;11.754;2022-12-07T00:55:40;96541.38;;;2.04;85.63
60479;BME280;46321;48.398;11.754;2022-12-07T00:58:06;96533.06;;;1.99;85.81
60479;BME280;46321;48.398;11.754;2022-12-07T01:00:31;96534.72;;;2.00;85.71
60479;BME280;46321;48.398;11.754;2022-12-07T01:02:56;96538.31;;;1.99;85.81
60479;BME280;46321;48.398;11.754;2022-12-07T01:05:22;96545.16;;;2.00;85.68
60479;BME280;46321;48.398;11.754;2022-12-07T01:07:47;96533.06;;;1.99;85.47
60479;BME280;46321;48.398;11.754;2022-12-07T01:10:13;96535.56;;;2.01;85.63
60479;BME280;46321;48.398;11.754;2022-12-07T01:12:38;96535.69;;;1.99;85.54
60479;BME280;46321;48.398;11.754;2022-12-07T01:15:04;96535.69;;;1.99;85.38
60479;BME280;46321;48.398;11.754;2022-12-07T01:17:30;96532.38;;;1.97;85.72
60479;BME280;46321;48.398;11.754;2022-12-07T01:19:55;96543.53;;;1.99;85.61
60479;BME280;46321;48.398;11.754;2022-12-07T01:22:20;96537.94;;;1.92;86.01
60479;BME280;46321;48.398;11.754;2022-12-07T01:24:45;96535.91;;;1.96;85.92
60479;BME280;46321;48.398;11.754;2022-12-07T01:27:12;96539.38;;;1.97;85.73
60479;BME280;46321;48.398;11.754;2022-12-07T01:29:37;96537.69;;;1.96;85.70
60479;BME280;46321;48.398;11.754;2022-12-07T01:32:03;96542.69;;;1.99;85.57
60479;BME280;46321;48.398;11.754;2022-12-07T01:34:28;96543.63;;;1.98;85.72
60479;BME280;46321;48.398;11.754;2022-12-07T01:36:53;96537.81;;;1.94;85.60
60479;BME280;46321;48.398;11.754;2022-12-07T01:39:18;96527.88;;;1.88;85.91
60479;BME280;46321;48.398;11.754;2022-12-07T01:41:44;96529.75;;;1.86;86.09
60479;BME280;46321;48.398;11.754;2022-12-07T01:46:45;96535.69;;;1.88;85.85
60479;BME280;46321;48.398;11.754;2022-12-07T01:49:44;96531.41;;;1.87;86.23
60479;BME280;46321;48.398;11.754;2022-12-07T01:52:21;96536.03;;;1.83;86.41
60479;BME280;46321;48.398;11.754;2022-12-07T01:54:50;96524.78;;;1.82;85.86
60479;BME280;46321;48.398;11.754;2022-12-07T01:57:16;96515.50;;;1.78;85.91
60479;BME280;46321;48.398;11.754;2022-12-07T01:59:45;96527.97;;;1.86;86.19
60479;BME280;46321;48.398;11.754;2022-12-07T02:02:18;96531.41;;;1.87;86.22
60479;BME280;46321;48.398;11.754;2022-12-07T02:04:45;96521.09;;;1.85;86.05
60479;BME280;46321;48.398;11.754;2022-12-07T02:07:11;96527.03;;;1.87;85.57
60479;BME280;46321;48.398;11.754;2022-12-07T02:09:36;96532.25;;;1.87;85.81
60479;BME280;46321;48.398;11.754;2022-12-07T02:12:02;96521.94;;;1.86;85.78
60479;BME280;46321;48.398;11.754;2022-12-07T02:14:28;96527.38;;;1.82;85.82
60479;BME280;46321;48.398;11.754;2022-12-07T02:17:12;96527.72;;;1.78;85.92
60479;BME280;46321;48.398;11.754;2022-12-07T02:19:45;96525.25;;;1.76;85.90
60479;BME280;46321;48.398;11.754;2022-12-07T02:24:58;96532.13;;;1.77;86.15
60479;BME280;46321;48.398;11.754;2022-12-07T02:27:52;96528.34;;;1.70;86.21
60479;BME280;46321;48.398;11.754;2022-12-07T02:30:22;96521.44;;;1.69;86.37
60479;BME280;46321;48.398;11.754;2022-12-07T02:33:09;96520.72;;;1.67;86.62
60479;BME280;46321;48.398;11.754;2022-12-07T02:35:51;96532.94;;;1.66;86.53
60479;BME280;46321;48.398;11.754;2022-12-07T02:38:51;96529.53;;;1.66;86.52
60479;BME280;46321;48.398;11.754;2022-12-07T02:41:26;96525.03;;;1.68;86.25
60479;BME280;46321;48.398;11.754;2022-12-07T02:44:07;96529.41;;;1.67;86.44
60479;BME280;46321;48.398;11.754;2022-12-07T02:46:38;96531.88;;;1.69;86.60
60479;BME280;46321;48.398;11.754;2022-12-07T02:49:06;96527.00;;;1.64;86.54
60479;BME280;46321;48.398;11.754;2022-12-07T02:51:33;96514.09;;;1.63;86.42
60479;BME280;46321;48.398;11.754;2022-12-07T02:53:59;96517.19;;;1.68;86.26
60479;BME280;46321;48.398;11.754;2022-12-07T03:02:35;96513.25;;;1.62;86.63
60479;BME280;46321;48.398;11.754;2022-12-07T03:05:20;96514.94;;;1.63;86.54
60479;BME280;46321;48.398;11.754;2022-12-07T03:10:59;96510.91;;;1.59;86.75
60479;BME280;46321;48.398;11.754;2022-12-07T03:13:31;96513.59;;;1.57;86.89
60479;BME280;46321;48.398;11.754;2022-12-07T03:18:31;96517.75;;;1.60;86.68
60479;BME280;46321;48.398;11.754;2022-12-07T03:21:01;96513.25;;;1.62;86.47
60479;BME280;46321;48.398;11.754;2022-12-07T03:23:29;96510.78;;;1.60;86.72
60479;BME280;46321;48.398;11.754;2022-12-07T03:26:00;96516.47;;;1.54;86.79
60479;BME280;46321;48.398;11.754;2022-12-07T03:28:33;96515.63;;;1.54;86.97
60479;BME280;46321;48.398;11.754;2022-12-07T03:31:07;96515.50;;;1.55;86.95
60479;BME280;46321;48.398;11.754;2022-12-07T03:33:46;96502.81;;;1.51;87.31
60479;BME280;46321;48.398;11.754;2022-12-07T03:36:47;96511.13;;;1.44;87.15
60479;BME280;46321;48.398;11.754;2022-12-07T03:39:30;96505.06;;;1.44;87.40
60479;BME280;46321;48.398;11.754;2022-12-07T03:41:59;96507.56;;;1.45;87.40
60479;BME280;46321;48.398;11.754;2022-12-07T03:44:27;96512.88;;;1.44;87.64
60479;BME280;46321;48.398;11.754;2022-12-07T03:49:25;96500.31;;;1.49;87.39
60479;BME280;46321;48.398;11.754;2022-12-07T03:54:28;96498.31;;;1.53;87.19
60479;BME280;46321;48.398;11.754;2022-12-07T03:56:55;96493.91;;;1.53;87.30
60479;BME280;46321;48.398;11.754;2022-12-07T03:59:22;96495.94;;;1.50;87.41
60479;BME280;46321;48.398;11.754;2022-12-07T04:01:54;96498.66;;;1.48;87.40
60479;BME280;46321;48.398;11.754;2022-12-07T04:04:21;96499.63;;;1.47;87.91
60479;BME280;46321;48.398;11.754;2022-12-07T04:06:46;96487.41;;;1.47;87.93
60479;BME280;46321;48.398;11.754;2022-12-07T04:09:11;96494.03;;;1.40;88.04
60479;BME280;46321;48.398;11.754;2022-12-07T04:11:39;96495.59;;;1.43;88.27
60479;BME280;46321;48.398;11.754;2022-12-07T04:14:04;96488.47;;;1.45;88.20
60479;BME280;46321;48.398;11.754;2022-12-07T04:16:50;96497.94;;;1.46;87.91
60479;BME280;46321;48.398;11.754;2022-12-07T04:19:17;96486.56;;;1.47;87.60
60479;BME280;46321;48.398;11.754;2022-12-07T04:21:43;96495.34;;;1.46;87.49
60479;BME280;46321;48.398;11.754;2022-12-07T04:24:09;96493.44;;;1.48;87.55
60479;BME280;46321;48.398;11.754;2022-12-07T04:26:34;96492.28;;;1.52;87.25
60479;BME280;46321;48.398;11.754;2022-12-07T04:29:00;96487.28;;;1.49;87.39
60479;BME280;46321;48.398;11.754;2022-12-07T04:31:25;96488.56;;;1.55;87.18
60479;BME280;46321;48.398;11.754;2022-12-07T04:33:51;96483.84;;;1.60;86.28
60479;BME280;46321;48.398;11.754;2022-12-07T04:36:16;96477.19;;;1.56;86.25
60479;BME280;46321;48.398;11.754;2022-12-07T04:38:42;96484.44;;;1.52;86.32
60479;BME280;46321;48.398;11.754;2022-12-07T04:41:08;96477.34;;;1.54;86.30
60479;BME280;46321;48.398;11.754;2022-12-07T04:43:35;96478.41;;;1.52;86.07
60479;BME280;46321;48.398;11.754;2022-12-07T04:46:01;96488.13;;;1.50;86.14
60479;BME280;46321;48.398;11.754;2022-12-07T04:48:26;96480.16;;;1.51;86.09
60479;BME280;46321;48.398;11.754;2022-12-07T04:50:51;96487.06;;;1.52;85.87
60479;BME280;46321;48.398;11.754;2022-12-07T04:53:17;96483.63;;;1.52;86.33
60479;BME280;46321;48.398;11.754;2022-12-07T04:55:43;96485.38;;;1.51;86.30
60479;BME280;46321;48.398;11.754;2022-12-07T04:58:08;96484.69;;;1.49;86.25
60479;BME280;46321;48.398;11.754;2022-12-07T05:00:34;96485.16;;;1.54;86.21
60479;BME280;46321;48.398;11.754;2022-12-07T05:02:59;96481.84;;;1.52;86.29
60479;BME280;46321;48.398;11.754;2022-12-07T05:05:24;96487.06;;;1.52;86.33
60479;BME280;46321;48.398;11.754;2022-12-07T05:07:50;96486.22;;;1.52;86.67
60479;BME280;46321;48.398;11.754;2022-12-07T05:10:16;96488.34;;;1.46;86.90
60479;BME280;46321;48.398;11.754;2022-12-07T05:12:41;96488.22;;;1.48;86.92
60479;BME280;46321;48.398;11.754;2022-12-07T05:15:07;96491.66;;;1.48;87.21
60479;BME280;46321;48.398;11.754;2022-12-07T05:17:33;96495.34;;;1.46;86.99
60479;BME280;46321;48.398;11.754;2022-12-07T05:19:58;96483.13;;;1.46;86.89
60479;BME280;46321;48.398;11.754;2022-12-07T05:22:24;96483.13;;;1.46;87.21
60479;BME280;46321;48.398;11.754;2022-12-07T05:24:54;96484.09;;;1.45;87.44
60479;BME280;46321;48.398;11.754;2022-12-07T05:27:20;96486.00;;;1.43;87.43
60479;BME280;46321;48.398;11.754;2022-12-07T05:29:45;96489.06;;;1.48;87.58
60479;BME280;46321;48.398;11.754;2022-12-07T05:32:10;96480.66;;;1.45;87.64
60479;BME280;46321;48.398;11.754;2022-12-07T05:34:36;96487.41;;;1.47;87.41
60479;BME280;46321;48.398;11.754;2022-12-07T05:37:01;96489.88;;;1.49;87.29
60479;BME280;46321;48.398;11.754;2022-12-07T05:39:26;96491.78;;;1.47;87.64
60479;BME280;46321;48.398;11.754;2022-12-07T05:41:52;96499.84;;;1.44;87.43
60479;BME280;46321;48.398;11.754;2022-12-07T05:44:35;96492.00;;;1.44;87.75
60479;BME280;46321;48.398;11.754;2022-12-07T05:47:01;96488.59;;;1.43;87.93
60479;BME280;46321;48.398;11.754;2022-12-07T05:49:26;96490.03;;;1.47;87.52
60479;BME280;46321;48.398;11.754;2022-12-07T05:51:51;96488.69;;;1.42;87.76
60479;BME280;46321;48.398;11.754;2022-12-07T05:54:17;96488.34;;;1.46;87.72
60479;BME280;46321;48.398;11.754;2022-12-07T05:56:42;96482.06;;;1.49;87.64
60479;BME280;46321;48.398;11.754;2022-12-07T05:59:08;96484.19;;;1.44;87.62
60479;BME280;46321;48.398;11.754;2022-12-07T06:02:07;96491.31;;;1.42;87.81
60479;BME280;46321;48.398;11.754;2022-12-07T06:04:37;96481.84;;;1.41;87.92
60479;BME280;46321;48.398;11.754;2022-12-07T06:07:04;96490.59;;;1.40;87.84
60479;BME280;46321;48.398;11.754;2022-12-07T06:09:29;96485.38;;;1.40;88.22
60479;BME280;46321;48.398;11.754;2022-12-07T06:11:55;96477.09;;;1.34;88.33
60479;BME280;46321;48.398;11.754;2022-12-07T06:14:39;96480.16;;;1.40;88.00
60479;BME280;46321;48.398;11.754;2022-12-07T06:17:05;96485.38;;;1.40;88.45
60479;BME280;46321;48.398;11.754;2022-12-07T06:19:30;96490.84;;;1.36;88.25
60479;BME280;46321;48.398;11.754;2022-12-07T06:21:56;96485.72;;;1.35;88.28
60479;BME280;46321;48.398;11.754;2022-12-07T06:24:21;96479.09;;;1.42;87.69
60479;BME280;46321;48.398;11.754;2022-12-07T06:26:47;96478.97;;;1.44;87.23
60479;BME280;46321;48.398;11.754;2022-12-07T06:29:12;96489.75;;;1.39;87.74
60479;BME280;46321;48.398;11.754;2022-12-07T06:31:38;96490.84;;;1.36;87.77
60479;BME280;46321;48.398;11.754;2022-12-07T06:34:06;96494.97;;;1.39;87.64
60479;BME280;46321;48.398;11.754;2022-12-07T06:36:32;96491.28;;;1.30;88.24
60479;BME280;46321;48.398;11.754;2022-12-07T06:38:57;96490.94;;;1.35;87.92
60479;BME280;46321;48.398;11.754;2022-12-07T06:41:23;96498.53;;;1.27;87.80
60479;BME280;46321;48.398;11.754;2022-12-07T06:43:49;96496.25;;;1.22;87.85
60479;BME280;46321;48.398;11.754;2022-12-07T06:46:15;96493.66;;;1.22;88.07
60479;BME280;46321;48.398;11.754;2022-12-07T06:48:41;96501.72;;;1.19;87.98
60479;BME280;46321;48.398;11.754;2022-12-07T06:51:06;96498.63;;;1.13;88.04
60479;BME280;46321;48.398;11.754;2022-12-07T06:53:32;96501.09;;;1.15;88.00
60479;BME280;46321;48.398;11.754;2022-12-07T06:55:57;96495.91;;;1.15;88.33
60479;BME280;46321;48.398;11.754;2022-12-07T06:58:22;96496.25;;;1.10;87.76
60479;BME280;46321;48.398;11.754;2022-12-07T07:00:48;96493.41;;;1.13;88.25
60479;BME280;46321;48.398;11.754;2022-12-07T07:03:14;96494.31;;;1.01;88.14
60479;BME280;46321;48.398;11.754;2022-12-07T07:05:40;96497.28;;;0.96;88.44
60479;BME280;46321;48.398;11.754;2022-12-07T07:08:05;96493.47;;;0.89;88.75
60479;BME280;46321;48.398;11.754;2022-12-07T07:10:30;96494.56;;;0.98;88.32
60479;BME280;46321;48.398;11.754;2022-12-07T07:12:56;96499.53;;;1.01;88.27
60479;BME280;46321;48.398;11.754;2022-12-07T07:15:21;96502.13;;;1.01;88.18
60479;BME280;46321;48.398;11.754;2022-12-07T07:17:46;96500.63;;;0.98;88.32
60479;BME280;46321;48.398;11.754;2022-12-07T07:20:12;96499.06;;;0.96;88.48
60479;BME280;46321;48.398;11.754;2022-12-07T07:22:37;96498.81;;;0.99;88.49
60479;BME280;46321;48.398;11.754;2022-12-07T07:25:03;96502.88;;;1.03;88.62
60479;BME280;46321;48.398;11.754;2022-12-07T07:27:28;96501.00;;;1.05;88.45
60479;BME280;46321;48.398;11.754;2022-12-07T07:29:53;96501.56;;;1.09;88.45
60479;BME280;46321;48.398;11.754;2022-12-07T07:32:19;96496.72;;;1.04;88.56
60479;BME280;46321;48.398;11.754;2022-12-07T07:34:44;96496.59;;;1.06;88.32
60479;BME280;46321;48.398;11.754;2022-12-07T07:37:09;96497.19;;;1.09;88.58
60479;BME280;46321;48.398;11.754;2022-12-07T07:39:37;96498.00;;;1.10;88.33
60479;BME280;46321;48.398;11.754;2022-12-07T07:42:03;96509.06;;;1.13;88.19
60479;BME280;46321;48.398;11.754;2022-12-07T07:44:28;96510.47;;;1.18;88.14
60479;BME280;46321;48.398;11.754;2022-12-07T07:46:53;96495.44;;;1.21;88.24
60479;BME280;46321;48.398;11.754;2022-12-07T07:49:19;96497.94;;;1.23;88.08
60479;BME280;46321;48.398;11.754;2022-12-07T07:51:44;96506.34;;;1.27;87.59
60479;BME280;46321;48.398;11.754;2022-12-07T07:54:09;96502.56;;;1.31;87.64
60479;BME280;46321;48.398;11.754;2022-12-07T07:56:35;96506.84;;;1.32;87.43
60479;BME280;46321;48.398;11.754;2022-12-07T07:59:00;96508.50;;;1.33;87.27
60479;BME280;46321;48.398;11.754;2022-12-07T08:01:25;96515.47;;;1.32;87.46
60479;BME280;46321;48.398;11.754;2022-12-07T08:03:50;96519.75;;;1.33;87.26
60479;BME280;46321;48.398;11.754;2022-12-07T08:06:16;96528.06;;;1.39;87.26
60479;BME280;46321;48.398;11.754;2022-12-07T08:08:41;96525.13;;;1.43;86.72
60479;BME280;46321;48.398;11.754;2022-12-07T08:11:08;96529.16;;;1.47;86.93
60479;BME280;46321;48.398;11.754;2022-12-07T08:13:35;96533.66;;;1.45;86.80
60479;BME280;46321;48.398;11.754;2022-12-07T08:16:05;96528.44;;;1.45;86.62
60479;BME280;46321;48.398;11.754;2022-12-07T08:18:35;96538.16;;;1.55;86.31
60479;BME280;46321;48.398;11.754;2022-12-07T08:21:00;96543.00;;;1.48;85.55
60479;BME280;46321;48.398;11.754;2022-12-07T08:23:26;96542.28;;;1.46;85.65
60479;BME280;46321;48.398;11.754;2022-12-07T08:25:51;96542.41;;;1.44;85.61
60479;BME280;46321;48.398;11.754;2022-12-07T08:28:17;96553.56;;;1.46;85.47
60479;BME280;46321;48.398;11.754;2022-12-07T08:30:42;96551.66;;;1.48;85.33
60479;BME280;46321;48.398;11.754;2022-12-07T08:33:09;96552.75;;;1.57;85.18
60479;BME280;46321;48.398;11.754;2022-12-07T08:35:35;96557.50;;;1.64;84.66
60479;BME280;46321;48.398;11.754;2022-12-07T08:38:01;96555.63;;;1.66;84.46
60479;BME280;46321;48.398;11.754;2022-12-07T08:40:27;96549.94;;;1.72;84.54
60479;BME280;46321;48.398;11.754;2022-12-07T08:42:52;96547.06;;;1.75;84.19
60479;BME280;46321;48.398;11.754;2022-12-07T08:45:19;96552.78;;;1.80;83.64
60479;BME280;46321;48.398;11.754;2022-12-07T08:47:50;96543.75;;;1.85;83.42
60479;BME280;46321;48.398;11.754;2022-12-07T08:50:17;96547.91;;;2.22;83.72
60479;BME280;46321;48.398;11.754;2022-12-07T08:52:42;96545.31;;;3.52;83.16
60479;BME280;46321;48.398;11.754;2022-12-07T08:55:10;96538.66;;;5.11;78.47
60479;BME280;46321;48.398;11.754;2022-12-07T08:57:36;96533.91;;;6.31;73.58
60479;BME280;46321;48.398;11.754;2022-12-07T09:00:03;96525.63;;;7.36;67.93
60479;BME280;46321;48.398;11.754;2022-12-07T09:02:30;96529.25;;;8.31;64.00
60479;BME280;46321;48.398;11.754;2022-12-07T09:04:56;96527.13;;;9.20;60.53
60479;BME280;46321;48.398;11.754;2022-12-07T09:07:21;96526.66;;;9.99;60.25
60479;BME280;46321;48.398;11.754;2022-12-07T09:09:46;96523.97;;;10.79;55.52
60479;BME280;46321;48.398;11.754;2022-12-07T09:12:12;96522.78;;;11.44;51.92
60479;BME280;46321;48.398;11.754;2022-12-07T09:14:37;96530.97;;;11.57;50.31
60479;BME280;46321;48.398;11.754;2022-12-07T09:17:10;96526.06;;;11.07;50.90
60479;BME280;46321;48.398;11.754;2022-12-07T09:19:35;96534.53;;;11.03;52.67
60479;BME280;46321;48.398;11.754;2022-12-07T09:22:01;96524.19;;;10.93;51.28
60479;BME280;46321;48.398;11.754;2022-12-07T09:24:26;96525.22;;;10.19;51.67
60479;BME280;46321;48.398;11.754;2022-12-07T09:26:52;96526.06;;;9.71;52.87
60479;BME280;46321;48.398;11.754;2022-12-07T09:29:17;96524.78;;;9.25;54.63
60479;BME280;46321;48.398;11.754;2022-12-07T09:31:43;96527.88;;;8.62;55.71
60479;BME280;46321;48.398;11.754;2022-12-07T09:34:08;96528.06;;;8.17;57.65
60479;BME280;46321;48.398;11.754;2022-12-07T09:36:33;96533.19;;;7.84;58.41
60479;BME280;46321;48.398;11.754;2022-12-07T09:38:59;96522.13;;;7.27;59.28
60479;BME280;46321;48.398;11.754;2022-12-07T09:41:25;96527.41;;;6.90;60.87
60479;BME280;46321;48.398;11.754;2022-12-07T09:43:53;96519.22;;;6.57;61.42
60479;BME280;46321;48.398;11.754;2022-12-07T09:46:23;96516.78;;;6.27;62.28
60479;BME280;46321;48.398;11.754;2022-12-07T09:48:49;96519.69;;;6.24;62.70
60479;BME280;46321;48.398;11.754;2022-12-07T09:51:23;96516.44;;;6.12;62.74
60479;BME280;46321;48.398;11.754;2022-12-07T09:53:49;96514.75;;;6.39;62.59
60479;BME280;46321;48.398;11.754;2022-12-07T09:56:17;96516.34;;;6.32;62.44
60479;BME280;46321;48.398;11.754;2022-12-07T09:58:43;96517.53;;;6.37;62.58
60479;BME280;46321;48.398;11.754;2022-12-07T10:01:18;96516.22;;;6.23;63.29
60479;BME280;46321;48.398;11.754;2022-12-07T10:03:55;96519.28;;;6.18;63.01
60479;BME280;46321;48.398;11.754;2022-12-07T10:06:24;96519.00;;;5.93;63.72
60479;BME280;46321;48.398;11.754;2022-12-07T10:08:49;96518.78;;;5.67;64.24
60479;BME280;46321;48.398;11.754;2022-12-07T10:11:14;96518.16;;;5.55;64.90
60479;BME280;46321;48.398;11.754;2022-12-07T10:13:44;96512.13;;;5.24;65.81
60479;BME280;46321;48.398;11.754;2022-12-07T10:18:48;96517.72;;;5.98;65.70
60479;BME280;46321;48.398;11.754;2022-12-07T10:21:24;96498.88;;;8.10;63.07
60479;BME280;46321;48.398;11.754;2022-12-07T10:24:21;96504.53;;;10.63;54.68
60479;BME280;46321;48.398;11.754;2022-12-07T10:26:53;96492.84;;;12.04;49.69
60479;BME280;46321;48.398;11.754;2022-12-07T10:29:22;96487.09;;;12.16;48.63
60479;BME280;46321;48.398;11.754;2022-12-07T10:31:57;96484.84;;;11.43;48.11
60479;BME280;46321;48.398;11.754;2022-12-07T10:34:26;96491.53;;;11.01;48.65
60479;BME280;46321;48.398;11.754;2022-12-07T10:36:53;96493.00;;;9.76;51.34
60479;BME280;46321;48.398;11.754;2022-12-07T10:39:20;96493.78;;;9.02;53.06
60479;BME280;46321;48.398;11.754;2022-12-07T10:42:00;96487.09;;;8.40;54.19
60479;BME280;46321;48.398;11.754;2022-12-07T10:44:28;96486.09;;;8.41;55.26
60479;BME280;46321;48.398;11.754;2022-12-07T10:49:45;96475.06;;;7.94;55.45
60479;BME280;46321;48.398;11.754;2022-12-07T10:55:08;96483.47;;;7.62;57.67
60479;BME280;46321;48.398;11.754;2022-12-07T11:00:10;96475.22;;;7.92;56.91
60479;BME280;46321;48.398;11.754;2022-12-07T11:08:21;96475.91;;;7.94;55.97
60479;BME280;46321;48.398;11.754;2022-12-07T11:13:27;96461.75;;;7.33;58.37
60479;BME280;46321;48.398;11.754;2022-12-07T11:16:09;96462.59;;;7.07;59.00
60479;BME280;46321;48.398;11.754;2022-12-07T11:21:37;96451.75;;;6.47;60.75
60479;BME280;46321;48.398;11.754;2022-12-07T11:24:24;96446.56;;;6.37;60.72
60479;BME280;46321;48.398;11.754;2022-12-07T11:27:07;96440.09;;;6.32;60.65
60479;BME280;46321;48.398;11.754;2022-12-07T11:35:05;96446.63;;;6.09;60.95
60479;BME280;46321;48.398;11.754;2022-12-07T11:37:35;96439.94;;;6.05;62.12
60479;BME280;46321;48.398;11.754;2022-12-07T11:40:05;96451.34;;;5.95;61.60
60479;BME280;46321;48.398;11.754;2022-12-07T11:42:41;96445.13;;;5.68;61.11
60479;BME280;46321;48.398;11.754;2022-12-07T11:45:15;96449.22;;;5.81;61.10
60479;BME280;46321;48.398;11.754;2022-12-07T11:47:47;96451.56;;;5.84;60.85
60479;BME280;46321;48.398;11.754;2022-12-07T11:50:41;96443.06;;;5.90;61.00
60479;BME280;46321;48.398;11.754;2022-12-07T11:58:04;96440.34;;;5.54;61.09
60479;BME280;46321;48.398;11.754;2022-12-07T12:00:33;96430.22;;;5.31;62.23
60479;BME280;46321;48.398;11.754;2022-12-07T12:03:04;96434.88;;;5.37;62.51
60479;BME280;46321;48.398;11.754;2022-12-07T12:05:33;96426.09;;;5.18;62.68
60479;BME280;46321;48.398;11.754;2022-12-07T12:10:54;96425.41;;;5.16;62.55
60479;BME280;46321;48.398;11.754;2022-12-07T12:21:42;96411.78;;;5.02;62.88
60479;BME280;46321;48.398;11.754;2022-12-07T12:24:14;96415.50;;;5.10;63.61
60479;BME280;46321;48.398;11.754;2022-12-07T12:26:50;96407.63;;;5.10;63.83
60479;BME280;46321;48.398;11.754;2022-12-07T12:29:41;96410.50;;;5.07;64.13
60479;BME280;46321;48.398;11.754;2022-12-07T12:32:17;96400.84;;;5.17;63.88
60479;BME280;46321;48.398;11.754;2022-12-07T12:42:53;96403.09;;;4.92;64.11
60479;BME280;46321;48.398;11.754;2022-12-07T12:45:26;96411.25;;;4.89;64.31
60479;BME280;46321;48.398;11.754;2022-12-07T12:50:24;96408.94;;;4.76;63.29
60479;BME280;46321;48.398;11.754;2022-12-07T12:52:57;96410.88;;;4.74;62.62
60479;BME280;46321;48.398;11.754;2022-12-07T13:03:53;96401.09;;;4.56;62.57
60479;BME280;46321;48.398;11.754;2022-12-07T13:08:50;96403.03;;;4.54;63.29
60479;BME280;46321;48.398;11.754;2022-12-07T13:11:25;96389.63;;;4.37;62.74
60479;BME280;46321;48.398;11.754;2022-12-07T13:16:57;96392.25;;;4.37;62.46
60479;BME280;46321;48.398;11.754;2022-12-07T13:25:05;96383.31;;;4.30;61.61
60479;BME280;46321;48.398;11.754;2022-12-07T13:27:33;96384.00;;;4.32;62.30
60479;BME280;46321;48.398;11.754;2022-12-07T13:30:00;96385.25;;;4.28;61.98
60479;BME280;46321;48.398;11.754;2022-12-07T13:32:28;96375.44;;;4.20;62.09
60479;BME280;46321;48.398;11.754;2022-12-07T13:34:54;96371.88;;;4.21;61.44
60479;BME280;46321;48.398;11.754;2022-12-07T13:37:26;96380.00;;;4.18;61.75
60479;BME280;46321;48.398;11.754;2022-12-07T13:40:17;96380.53;;;4.11;62.33
60479;BME280;46321;48.398;11.754;2022-12-07T13:42:43;96382.75;;;4.06;61.48
60479;BME280;46321;48.398;11.754;2022-12-07T13:45:27;96375.97;;;4.04;61.66
60479;BME280;46321;48.398;11.754;2022-12-07T13:48:43;96375.44;;;4.00;61.64
60479;BME280;46321;48.398;11.754;2022-12-07T13:51:17;96370.47;;;3.97;61.86
60479;BME280;46321;48.398;11.754;2022-12-07T13:53:50;96369.91;;;3.93;62.88
60479;BME280;46321;48.398;11.754;2022-12-07T13:56:16;96377.63;;;3.95;62.76
60479;BME280;46321;48.398;11.754;2022-12-07T13:58:42;96373.91;;;3.87;62.66
60479;BME280;46321;48.398;11.754;2022-12-07T14:01:07;96373.09;;;3.87;62.72
60479;BME280;46321;48.398;11.754;2022-12-07T14:03:34;96379.00;;;3.89;62.79
60479;BME280;46321;48.398;11.754;2022-12-07T14:06:15;96372.25;;;3.86;62.04
60479;BME280;46321;48.398;11.754;2022-12-07T14:08:42;96373.91;;;3.87;62.35
60479;BME280;46321;48.398;11.754;2022-12-07T14:11:13;96380.53;;;3.92;61.76
60479;BME280;46321;48.398;11.754;2022-12-07T14:13:45;96380.34;;;3.83;61.39
60479;BME280;46321;48.398;11.754;2022-12-07T14:18:43;96375.41;;;3.80;61.73
60479;BME280;46321;48.398;11.754;2022-12-07T14:23:33;96361.44;;;3.70;62.58
60479;BME280;46321;48.398;11.754;2022-12-07T14:26:28;96376.75;;;3.74;62.69
60479;BME280;46321;48.398;11.754;2022-12-07T14:31:47;96372.34;;;3.75;62.54
60479;BME280;46321;48.398;11.754;2022-12-07T14:34:12;96366.69;;;3.70;62.30
60479;BME280;46321;48.398;11.754;2022-12-07T14:36:38;96371.66;;;3.63;61.88
60479;BME280;46321;48.398;11.754;2022-12-07T14:39:03;96363.94;;;3.61;62.46
60479;BME280;46321;48.398;11.754;2022-12-07T14:41:29;96369.31;;;3.60;62.47
60479;BME280;46321;48.398;11.754;2022-12-07T14:44:13;96368.75;;;3.56;62.56
60479;BME280;46321;48.398;11.754;2022-12-07T14:46:38;96364.72;;;3.52;63.05
60479;BME280;46321;48.398;11.754;2022-12-07T14:49:04;96353.44;;;3.51;63.05
60479;BME280;46321;48.398;11.754;2022-12-07T14:51:30;96358.78;;;3.50;63.55
60479;BME280;46321;48.398;11.754;2022-12-07T14:53:55;96356.31;;;3.48;63.44